createdAt,value
2019-05-16T00:00:41.840Z,7.57
2019-05-16T00:01:41.828Z,7.59
2019-05-16T00:02:41.809Z,7.61
2019-05-16T00:03:41.842Z,7.62
2019-05-16T00:04:41.811Z,7.62
2019-05-16T00:05:50.431Z,7.63
2019-05-16T00:06:42.769Z,7.64
2019-05-16T00:07:41.780Z,7.67
2019-05-16T00:08:41.754Z,7.68
2019-05-16T00:09:41.756Z,7.69
2019-05-16T00:10:41.739Z,7.71
2019-05-16T00:11:41.718Z,7.73
2019-05-16T00:12:41.711Z,7.73
2019-05-16T00:13:41.709Z,7.75
2019-05-16T00:14:41.710Z,7.76
2019-05-16T00:15:41.721Z,7.77
2019-05-16T00:16:41.679Z,7.79
2019-05-16T00:17:41.658Z,7.80
2019-05-16T00:18:41.646Z,7.79
2019-05-16T00:19:41.627Z,7.80
2019-05-16T00:20:41.651Z,7.83
2019-05-16T00:21:41.627Z,7.85
2019-05-16T00:22:41.595Z,7.85
2019-05-16T00:23:41.599Z,7.86
2019-05-16T00:24:41.576Z,7.87
2019-05-16T00:25:41.595Z,7.89
2019-05-16T00:26:41.561Z,7.90
2019-05-16T00:27:41.547Z,7.91
2019-05-16T00:28:41.542Z,7.91
2019-05-16T00:29:41.535Z,7.92
2019-05-16T00:30:41.536Z,7.93
2019-05-16T00:31:41.508Z,7.93
2019-05-16T00:32:41.496Z,7.94
2019-05-16T00:33:41.488Z,7.95
2019-05-16T00:34:41.485Z,7.96
2019-05-16T00:35:41.490Z,7.97
2019-05-16T00:36:41.455Z,7.98
2019-05-16T00:37:41.486Z,8.00
2019-05-16T00:38:41.457Z,8.01
2019-05-16T00:39:41.412Z,8.03
2019-05-16T00:40:41.418Z,8.03
2019-05-16T00:41:41.398Z,8.05
2019-05-16T00:42:41.384Z,8.07
2019-05-16T00:43:41.376Z,8.08
2019-05-16T00:44:41.784Z,8.10
2019-05-16T00:45:41.354Z,8.12
2019-05-16T00:46:41.345Z,8.13
2019-05-16T00:47:41.333Z,8.14
2019-05-16T00:48:41.321Z,8.15
2019-05-16T00:49:41.301Z,8.18
2019-05-16T00:50:41.328Z,8.20
2019-05-16T00:51:41.281Z,8.21
2019-05-16T00:52:41.289Z,8.23
2019-05-16T00:53:41.284Z,8.24
2019-05-16T00:54:41.512Z,8.26
2019-05-16T00:55:41.285Z,8.28
2019-05-16T00:56:41.225Z,8.29
2019-05-16T00:57:41.232Z,8.31
2019-05-16T00:58:41.202Z,8.32
2019-05-16T00:59:41.199Z,8.34
2019-05-16T01:00:41.207Z,8.36
2019-05-16T01:01:41.197Z,8.36
2019-05-16T01:02:41.166Z,8.37
2019-05-16T01:03:41.151Z,8.39
2019-05-16T01:04:41.149Z,8.38
2019-05-16T01:05:41.144Z,8.39
2019-05-16T01:06:41.139Z,8.40
2019-05-16T01:07:41.144Z,8.41
2019-05-16T01:08:41.092Z,8.41
2019-05-16T01:09:41.101Z,8.41
2019-05-16T01:10:41.103Z,8.42
2019-05-16T01:11:41.162Z,8.43
2019-05-16T01:12:41.050Z,8.43
2019-05-16T01:13:41.054Z,8.44
2019-05-16T01:14:41.030Z,8.45
2019-05-16T01:15:41.032Z,8.45
2019-05-16T01:16:41.029Z,8.46
2019-05-16T01:17:41.004Z,8.46
2019-05-16T01:18:40.993Z,8.46
2019-05-16T01:19:40.980Z,8.48
2019-05-16T01:20:40.959Z,8.48
2019-05-16T01:21:40.993Z,8.49
2019-05-16T01:22:40.939Z,8.50
2019-05-16T01:23:40.932Z,8.50
2019-05-16T01:24:41.547Z,8.51
2019-05-16T01:25:40.913Z,8.52
2019-05-16T01:26:40.899Z,8.52
2019-05-16T01:27:40.909Z,8.54
2019-05-16T01:28:40.878Z,8.56
2019-05-16T01:29:40.866Z,8.56
2019-05-16T01:30:40.870Z,8.56
2019-05-16T01:31:40.861Z,8.57
2019-05-16T01:32:40.848Z,8.59
2019-05-16T01:33:40.820Z,8.59
2019-05-16T01:34:40.838Z,8.60
2019-05-16T01:35:41.866Z,8.60
2019-05-16T01:36:41.010Z,8.61
2019-05-16T01:37:40.801Z,8.61
2019-05-16T01:38:41.700Z,8.61
2019-05-16T01:39:40.870Z,8.61
2019-05-16T01:40:40.788Z,8.61
2019-05-16T01:41:40.745Z,8.61
2019-05-16T01:42:40.741Z,8.59
2019-05-16T01:43:40.716Z,8.59
2019-05-16T01:44:40.706Z,8.59
2019-05-16T01:45:40.699Z,8.60
2019-05-16T01:46:40.688Z,8.60
2019-05-16T01:47:40.668Z,8.60
2019-05-16T01:48:40.669Z,8.61
2019-05-16T01:49:40.639Z,8.61
2019-05-16T01:50:40.636Z,8.62
2019-05-16T01:51:40.642Z,8.61
2019-05-16T01:52:40.797Z,8.63
2019-05-16T01:53:40.605Z,8.64
2019-05-16T01:54:40.598Z,8.64
2019-05-16T01:55:40.759Z,8.66
2019-05-16T01:56:40.598Z,8.66
2019-05-16T01:57:40.555Z,8.68
2019-05-16T01:58:40.557Z,8.69
2019-05-16T01:59:40.533Z,8.70
2019-05-16T02:00:52.635Z,8.71
2019-05-16T02:01:41.570Z,8.72
2019-05-16T02:02:40.525Z,8.73
2019-05-16T02:03:40.499Z,8.73
2019-05-16T02:04:40.486Z,8.74
2019-05-16T02:05:40.481Z,8.75
2019-05-16T02:06:50.839Z,8.75
2019-05-16T02:07:41.472Z,8.76
2019-05-16T02:08:40.444Z,8.77
2019-05-16T02:09:40.456Z,8.77
2019-05-16T02:10:40.464Z,8.78
2019-05-16T02:11:40.411Z,8.79
2019-05-16T02:12:40.405Z,8.80
2019-05-16T02:13:40.780Z,8.79
2019-05-16T02:14:40.373Z,8.80
2019-05-16T02:15:40.374Z,8.80
2019-05-16T02:16:40.344Z,8.81
2019-05-16T02:17:40.616Z,8.81
2019-05-16T02:18:40.336Z,8.82
2019-05-16T02:19:40.335Z,8.83
2019-05-16T02:20:40.358Z,8.83
2019-05-16T02:21:40.578Z,8.84
2019-05-16T02:22:40.282Z,8.82
2019-05-16T02:23:41.217Z,8.83
2019-05-16T02:24:40.263Z,8.83
2019-05-16T02:25:40.857Z,8.83
2019-05-16T02:26:40.252Z,8.83
2019-05-16T02:27:41.002Z,8.83
2019-05-16T02:28:43.694Z,8.84
2019-05-16T02:29:40.286Z,8.84
2019-05-16T02:30:42.159Z,8.84
2019-05-16T02:31:42.172Z,8.84
2019-05-16T02:32:41.788Z,8.86
2019-05-16T02:33:40.704Z,8.86
2019-05-16T02:34:41.709Z,8.86
2019-05-16T02:35:40.678Z,8.86
2019-05-16T02:36:40.579Z,8.87
2019-05-16T02:37:42.205Z,8.87
2019-05-16T02:38:42.286Z,8.87
2019-05-16T02:39:40.922Z,8.87
2019-05-16T02:40:41.799Z,8.88
2019-05-16T02:41:45.634Z,8.87
2019-05-16T02:42:42.298Z,8.87
2019-05-16T02:43:41.937Z,8.88
2019-05-16T02:44:41.202Z,8.88
2019-05-16T02:45:41.565Z,8.87
2019-05-16T02:46:41.785Z,8.88
2019-05-16T02:47:42.456Z,8.87
2019-05-16T02:48:41.035Z,8.87
2019-05-16T02:49:41.824Z,8.87
2019-05-16T02:50:41.478Z,8.88
2019-05-16T02:51:40.623Z,8.87
2019-05-16T02:52:41.283Z,8.86
2019-05-16T02:53:41.633Z,8.86
2019-05-16T02:54:41.144Z,8.87
2019-05-16T02:55:41.088Z,8.86
2019-05-16T02:56:41.800Z,8.86
2019-05-16T02:57:41.444Z,8.86
2019-05-16T02:58:41.347Z,8.85
2019-05-16T02:59:41.644Z,8.86
2019-05-16T03:00:42.687Z,8.87
2019-05-16T03:01:40.864Z,8.87
2019-05-16T03:02:41.881Z,8.87
2019-05-16T03:03:40.196Z,8.87
2019-05-16T03:04:43.723Z,8.87
2019-05-16T03:05:41.852Z,8.87
2019-05-16T03:06:41.053Z,8.87
2019-05-16T03:07:45.828Z,8.86
2019-05-16T03:08:41.327Z,8.86
2019-05-16T03:09:41.087Z,8.87
2019-05-16T03:10:41.329Z,8.85
2019-05-16T03:11:41.989Z,8.84
2019-05-16T03:12:41.139Z,8.83
2019-05-16T03:13:42.330Z,8.82
2019-05-16T03:14:41.952Z,8.80
2019-05-16T03:15:40.742Z,8.78
2019-05-16T03:16:41.800Z,8.77
2019-05-16T03:17:40.337Z,8.75
2019-05-16T03:18:41.448Z,8.73
2019-05-16T03:19:41.795Z,8.70
2019-05-16T03:20:40.760Z,8.68
2019-05-16T03:21:41.331Z,8.68
2019-05-16T03:22:41.393Z,8.66
2019-05-16T03:23:42.083Z,8.65
2019-05-16T03:24:42.122Z,8.62
2019-05-16T03:25:41.920Z,8.61
2019-05-16T03:26:40.848Z,8.61
2019-05-16T03:27:41.430Z,8.60
2019-05-16T03:28:41.323Z,8.60
2019-05-16T03:29:41.751Z,8.60
2019-05-16T03:30:44.827Z,8.61
2019-05-16T03:31:44.418Z,8.62
2019-05-16T03:32:45.221Z,8.63
2019-05-16T03:33:48.994Z,8.66
2019-05-16T03:34:44.120Z,8.66
2019-05-16T03:35:44.657Z,8.69
2019-05-16T03:36:43.869Z,8.72
2019-05-16T03:37:54.392Z,8.75
2019-05-16T03:38:41.336Z,8.77
2019-05-16T03:39:40.682Z,8.79
2019-05-16T03:40:41.296Z,8.82
2019-05-16T03:41:41.470Z,8.85
2019-05-16T03:42:41.613Z,8.88
2019-05-16T03:43:41.278Z,8.91
2019-05-16T03:44:41.131Z,8.92
2019-05-16T03:45:41.728Z,8.92
2019-05-16T03:46:41.266Z,8.93
2019-05-16T03:47:42.666Z,8.92
2019-05-16T03:48:40.828Z,8.91
2019-05-16T03:49:42.006Z,8.89
2019-05-16T03:50:41.277Z,8.87
2019-05-16T03:51:41.429Z,8.86
2019-05-16T03:52:43.354Z,8.84
2019-05-16T03:53:40.429Z,8.82
2019-05-16T03:54:41.965Z,8.80
2019-05-16T03:55:40.765Z,8.78
2019-05-16T03:56:40.818Z,8.76
2019-05-16T03:57:41.628Z,8.75
2019-05-16T03:58:41.522Z,8.73
2019-05-16T03:59:40.835Z,8.72
2019-05-16T04:00:45.256Z,8.70
2019-05-16T04:01:40.941Z,8.70
2019-05-16T04:02:44.883Z,8.70
2019-05-16T04:03:41.352Z,8.69
2019-05-16T04:04:41.773Z,8.69
2019-05-16T04:05:41.372Z,8.70
2019-05-16T04:06:41.562Z,8.69
2019-05-16T04:07:41.413Z,8.70
2019-05-16T04:08:41.231Z,8.71
2019-05-16T04:09:41.136Z,8.73
2019-05-16T04:10:40.925Z,8.76
2019-05-16T04:11:42.163Z,8.77
2019-05-16T04:12:41.824Z,8.80
2019-05-16T04:13:41.232Z,8.82
2019-05-16T04:14:41.027Z,8.85
2019-05-16T04:15:40.828Z,8.89
2019-05-16T04:16:41.408Z,8.93
2019-05-16T04:17:41.226Z,8.96
2019-05-16T04:18:41.952Z,9.01
2019-05-16T04:19:41.551Z,9.06
2019-05-16T04:20:40.639Z,9.09
2019-05-16T04:21:42.185Z,9.15
2019-05-16T04:22:40.802Z,9.20
2019-05-16T04:23:41.850Z,9.24
2019-05-16T04:24:41.556Z,9.31
2019-05-16T04:25:41.030Z,9.35
2019-05-16T04:26:41.159Z,9.41
2019-05-16T04:27:41.557Z,9.46
2019-05-16T04:28:41.306Z,9.53
2019-05-16T04:29:40.778Z,9.57
2019-05-16T04:30:41.468Z,9.64
2019-05-16T04:31:41.282Z,9.69
2019-05-16T04:32:41.463Z,9.72
2019-05-16T04:33:41.665Z,9.79
2019-05-16T04:34:41.574Z,9.84
2019-05-16T04:35:41.131Z,9.86
2019-05-16T04:36:40.641Z,9.92
2019-05-16T04:37:42.282Z,9.96
2019-05-16T04:38:45.115Z,10.00
2019-05-16T04:39:41.449Z,10.06
2019-05-16T04:40:42.220Z,10.12
2019-05-16T04:41:40.982Z,10.16
2019-05-16T04:42:41.616Z,10.23
2019-05-16T04:43:41.344Z,10.28
2019-05-16T04:44:41.679Z,10.34
2019-05-16T04:45:41.408Z,10.41
2019-05-16T04:46:41.099Z,10.47
2019-05-16T04:47:41.410Z,10.53
2019-05-16T04:48:41.568Z,10.58
2019-05-16T04:49:41.277Z,10.62
2019-05-16T04:50:41.807Z,10.67
2019-05-16T04:51:41.362Z,10.71
2019-05-16T04:52:41.734Z,10.75
2019-05-16T04:53:42.102Z,10.79
2019-05-16T04:54:41.859Z,10.82
2019-05-16T04:55:41.845Z,10.85
2019-05-16T04:56:41.248Z,10.86
2019-05-16T04:57:42.100Z,10.89
2019-05-16T04:58:40.745Z,10.92
2019-05-16T04:59:41.487Z,10.92
2019-05-16T05:00:41.808Z,10.93
2019-05-16T05:01:41.306Z,10.93
2019-05-16T05:02:41.719Z,10.94
2019-05-16T05:03:40.973Z,10.96
2019-05-16T05:04:41.496Z,10.96
2019-05-16T05:05:41.323Z,10.98
2019-05-16T05:06:40.585Z,10.99
2019-05-16T05:07:40.632Z,11.00
2019-05-16T05:08:52.907Z,11.03
2019-05-16T05:09:40.913Z,11.05
2019-05-16T05:10:40.689Z,11.07
2019-05-16T05:11:41.038Z,11.07
2019-05-16T05:12:40.851Z,11.10
2019-05-16T05:13:41.095Z,11.12
2019-05-16T05:14:41.453Z,11.15
2019-05-16T05:15:40.069Z,11.18
2019-05-16T05:16:41.108Z,11.22
2019-05-16T05:17:40.929Z,11.26
2019-05-16T05:18:40.777Z,11.31
2019-05-16T05:19:41.180Z,11.38
2019-05-16T05:20:40.856Z,11.43
2019-05-16T05:21:40.805Z,11.51
2019-05-16T05:22:39.735Z,11.57
2019-05-16T05:23:40.598Z,11.63
2019-05-16T05:24:40.425Z,11.69
2019-05-16T05:25:40.452Z,11.73
2019-05-16T05:26:38.330Z,11.75
2019-05-16T05:27:40.954Z,11.76
2019-05-16T05:28:40.227Z,11.76
2019-05-16T05:29:39.833Z,11.76
2019-05-16T05:30:38.257Z,11.75
2019-05-16T05:31:43.612Z,11.75
2019-05-16T05:32:41.338Z,11.74
2019-05-16T05:33:41.380Z,11.73
2019-05-16T05:34:39.831Z,11.72
2019-05-16T05:35:40.706Z,11.72
2019-05-16T05:36:40.751Z,11.72
2019-05-16T05:37:40.705Z,11.72
2019-05-16T05:38:40.273Z,11.71
2019-05-16T05:39:39.740Z,11.71
2019-05-16T05:40:40.438Z,11.71
2019-05-16T05:41:40.057Z,11.71
2019-05-16T05:42:39.901Z,11.70
2019-05-16T05:43:39.747Z,11.69
2019-05-16T05:44:40.034Z,11.67
2019-05-16T05:45:40.101Z,11.67
2019-05-16T05:46:40.034Z,11.66
2019-05-16T05:47:40.250Z,11.66
2019-05-16T05:48:40.866Z,11.68
2019-05-16T05:49:40.347Z,11.69
2019-05-16T05:50:40.050Z,11.71
2019-05-16T05:51:40.434Z,11.74
2019-05-16T05:52:40.837Z,11.77
2019-05-16T05:53:40.046Z,11.78
2019-05-16T05:54:40.555Z,11.80
2019-05-16T05:55:40.326Z,11.79
2019-05-16T05:56:39.808Z,11.79
2019-05-16T05:57:40.063Z,11.78
2019-05-16T05:58:40.588Z,11.78
2019-05-16T05:59:40.295Z,11.78
2019-05-16T06:00:40.409Z,11.80
2019-05-16T06:01:40.454Z,11.81
2019-05-16T06:02:39.965Z,11.83
2019-05-16T06:03:39.753Z,11.86
2019-05-16T06:04:39.574Z,11.90
2019-05-16T06:05:37.852Z,11.93
2019-05-16T06:06:37.884Z,11.97
2019-05-16T06:07:40.194Z,12.00
2019-05-16T06:08:37.822Z,12.02
2019-05-16T06:09:52.158Z,12.06
2019-05-16T06:10:40.532Z,12.10
2019-05-16T06:11:37.799Z,12.18
2019-05-16T06:12:40.542Z,12.25
2019-05-16T06:13:40.264Z,12.33
2019-05-16T06:14:37.761Z,12.43
2019-05-16T06:15:39.869Z,12.53
2019-05-16T06:16:40.061Z,12.64
2019-05-16T06:17:40.023Z,12.75
2019-05-16T06:18:39.582Z,12.87
2019-05-16T06:19:37.702Z,12.98
2019-05-16T06:20:39.986Z,13.10
2019-05-16T06:21:37.724Z,13.19
2019-05-16T06:22:40.138Z,13.32
2019-05-16T06:23:40.127Z,13.42
2019-05-16T06:24:39.786Z,13.50
2019-05-16T06:25:37.641Z,13.60
2019-05-16T06:26:39.627Z,13.71
2019-05-16T06:27:37.638Z,13.81
2019-05-16T06:28:37.618Z,13.94
2019-05-16T06:29:37.593Z,14.07
2019-05-16T06:30:37.577Z,14.21
2019-05-16T06:31:37.570Z,14.37
2019-05-16T06:32:39.498Z,14.51
2019-05-16T06:33:37.572Z,14.64
2019-05-16T06:34:37.561Z,14.76
2019-05-16T06:35:40.089Z,14.87
2019-05-16T06:36:39.971Z,14.99
2019-05-16T06:37:37.509Z,15.06
2019-05-16T06:38:37.500Z,15.15
2019-05-16T06:39:41.840Z,15.23
2019-05-16T06:40:40.166Z,15.34
2019-05-16T06:41:39.646Z,15.47
2019-05-16T06:42:40.044Z,15.61
2019-05-16T06:43:39.863Z,15.77
2019-05-16T06:44:39.969Z,15.93
2019-05-16T06:45:40.070Z,16.09
2019-05-16T06:46:44.368Z,16.27
2019-05-16T06:47:39.714Z,16.47
2019-05-16T06:48:39.677Z,16.65
2019-05-16T06:49:37.374Z,16.85
2019-05-16T06:50:37.368Z,17.05
2019-05-16T06:51:39.613Z,17.27
2019-05-16T06:52:37.350Z,17.48
2019-05-16T06:53:37.325Z,17.68
2019-05-16T06:54:37.328Z,17.87
2019-05-16T06:55:37.299Z,18.08
2019-05-16T06:56:39.900Z,18.30
2019-05-16T06:57:37.299Z,18.55
2019-05-16T06:58:45.607Z,18.86
2019-05-16T06:59:40.359Z,19.23
2019-05-16T07:00:37.249Z,19.60
2019-05-16T07:01:37.236Z,19.91
2019-05-16T07:02:37.238Z,20.21
2019-05-16T07:03:37.253Z,20.49
2019-05-16T07:04:39.710Z,20.73
2019-05-16T07:05:37.199Z,20.93
2019-05-16T07:06:51.929Z,21.04
2019-05-16T07:07:40.179Z,21.11
2019-05-16T07:08:37.168Z,21.11
2019-05-16T07:09:37.167Z,21.10
2019-05-16T07:10:37.146Z,21.06
2019-05-16T07:11:37.148Z,21.06
2019-05-16T07:12:37.129Z,21.07
2019-05-16T07:13:37.105Z,21.12
2019-05-16T07:14:37.152Z,21.22
2019-05-16T07:15:37.085Z,21.29
2019-05-16T07:16:37.100Z,21.39
2019-05-16T07:17:37.065Z,21.50
2019-05-16T07:18:37.059Z,21.59
2019-05-16T07:19:37.067Z,21.66
2019-05-16T07:20:37.045Z,21.73
2019-05-16T07:21:37.076Z,21.79
2019-05-16T07:22:37.005Z,21.82
2019-05-16T07:23:37.001Z,21.84
2019-05-16T07:24:36.992Z,21.85
2019-05-16T07:25:36.988Z,21.84
2019-05-16T07:26:36.977Z,21.85
2019-05-16T07:27:36.995Z,21.86
2019-05-16T07:28:36.973Z,21.89
2019-05-16T07:29:36.968Z,21.94
2019-05-16T07:30:36.957Z,22.00
2019-05-16T07:31:36.919Z,22.05
2019-05-16T07:32:36.924Z,22.08
2019-05-16T07:33:36.890Z,22.11
2019-05-16T07:34:36.885Z,22.10
2019-05-16T07:35:36.898Z,22.07
2019-05-16T07:36:36.864Z,22.00
2019-05-16T07:37:36.863Z,21.94
2019-05-16T07:38:36.868Z,21.92
2019-05-16T07:39:38.688Z,21.95
2019-05-16T07:40:36.817Z,22.01
2019-05-16T07:41:36.836Z,22.12
2019-05-16T07:42:36.798Z,22.23
2019-05-16T07:43:36.805Z,22.32
2019-05-16T07:44:36.790Z,22.37
2019-05-16T07:45:38.514Z,22.37
2019-05-16T07:46:36.756Z,22.32
2019-05-16T07:47:36.736Z,22.25
2019-05-16T07:48:36.732Z,22.19
2019-05-16T07:49:36.757Z,22.09
2019-05-16T07:50:36.716Z,22.00
2019-05-16T07:51:36.723Z,22.05
2019-05-16T07:52:36.863Z,22.14
2019-05-16T07:53:36.687Z,22.23
2019-05-16T07:54:36.672Z,22.37
2019-05-16T07:55:36.648Z,22.43
2019-05-16T07:56:36.645Z,22.54
2019-05-16T07:57:36.635Z,22.55
2019-05-16T07:58:36.610Z,22.49
2019-05-16T07:59:36.629Z,22.47
2019-05-16T08:00:49.467Z,22.45
2019-05-16T08:01:39.722Z,22.36
2019-05-16T08:02:36.580Z,22.23
2019-05-16T08:03:36.597Z,22.07
2019-05-16T08:04:36.682Z,21.96
2019-05-16T08:05:36.692Z,21.85
2019-05-16T08:06:36.523Z,21.77
2019-05-16T08:07:36.526Z,21.70
2019-05-16T08:08:36.513Z,21.59
2019-05-16T08:09:36.536Z,21.44
2019-05-16T08:10:41.702Z,21.29
2019-05-16T08:11:37.466Z,21.18
2019-05-16T08:12:36.481Z,21.11
2019-05-16T08:13:36.466Z,21.04
2019-05-16T08:14:36.477Z,21.00
2019-05-16T08:15:36.425Z,21.05
2019-05-16T08:16:36.406Z,21.12
2019-05-16T08:17:36.409Z,21.21
2019-05-16T08:18:36.407Z,21.28
2019-05-16T08:19:36.429Z,21.29
2019-05-16T08:20:36.407Z,21.24
2019-05-16T08:21:36.381Z,21.11
2019-05-16T08:22:36.386Z,20.95
2019-05-16T08:23:36.344Z,20.79
2019-05-16T08:24:36.396Z,20.67
2019-05-16T08:25:36.337Z,20.59
2019-05-16T08:26:41.978Z,20.59
2019-05-16T08:27:37.313Z,20.62
2019-05-16T08:28:36.275Z,20.66
2019-05-16T08:29:36.283Z,20.71
2019-05-16T08:30:36.279Z,20.75
2019-05-16T08:31:36.280Z,20.81
2019-05-16T08:32:36.248Z,20.84
2019-05-16T08:33:36.217Z,20.87
2019-05-16T08:34:36.226Z,20.92
2019-05-16T08:35:36.199Z,20.95
2019-05-16T08:36:36.224Z,20.97
2019-05-16T08:37:42.528Z,21.02
2019-05-16T08:38:37.165Z,21.14
2019-05-16T08:39:36.190Z,21.25
2019-05-16T08:41:01.130Z,21.31
2019-05-16T08:41:37.166Z,21.34
2019-05-16T08:42:36.128Z,21.36
2019-05-16T08:43:36.118Z,21.37
2019-05-16T08:44:36.138Z,21.46
2019-05-16T08:45:36.113Z,21.56
2019-05-16T08:46:36.105Z,21.61
2019-05-16T08:47:36.145Z,21.68
2019-05-16T08:48:36.069Z,21.80
2019-05-16T08:49:36.056Z,22.03
2019-05-16T08:50:36.955Z,22.39
2019-05-16T08:51:36.055Z,22.81
2019-05-16T08:52:36.030Z,23.23
2019-05-16T08:53:36.009Z,23.64
2019-05-16T08:54:36.007Z,24.11
2019-05-16T08:55:35.989Z,24.65
2019-05-16T08:56:35.985Z,25.19
2019-05-16T08:57:35.987Z,25.73
2019-05-16T08:58:35.966Z,26.30
2019-05-16T08:59:35.949Z,26.78
2019-05-16T09:00:35.982Z,27.14
2019-05-16T09:01:35.947Z,27.53
2019-05-16T09:02:36.960Z,28.01
2019-05-16T09:03:35.927Z,29.07
2019-05-16T09:04:35.902Z,30.76
2019-05-16T09:05:35.877Z,32.21
2019-05-16T09:06:35.870Z,32.46
2019-05-16T09:07:35.870Z,32.85
2019-05-16T09:08:35.862Z,32.86
2019-05-16T09:09:44.151Z,32.57
2019-05-16T09:10:59.058Z,32.35
2019-05-16T09:11:43.980Z,32.42
2019-05-16T09:12:37.237Z,31.65
2019-05-16T09:13:37.017Z,32.06
2019-05-16T09:14:38.964Z,32.15
2019-05-16T09:15:38.998Z,32.45
2019-05-16T09:16:37.204Z,32.22
2019-05-16T09:17:38.410Z,31.98
2019-05-16T09:18:41.238Z,32.14
2019-05-16T09:19:36.921Z,32.26
2019-05-16T09:20:37.449Z,32.50
2019-05-16T09:21:38.382Z,33.79
2019-05-16T09:22:37.763Z,33.78
2019-05-16T09:23:38.284Z,36.48
2019-05-16T09:24:37.721Z,39.44
2019-05-16T09:25:36.889Z,38.41
2019-05-16T09:26:38.125Z,37.73
2019-05-16T09:27:38.114Z,36.54
2019-05-16T09:28:38.995Z,36.21
2019-05-16T09:29:36.630Z,35.74
2019-05-16T09:30:37.022Z,36.24
2019-05-16T09:31:38.593Z,36.67
2019-05-16T09:32:36.965Z,36.04
2019-05-16T09:33:37.552Z,37.00
2019-05-16T09:34:37.825Z,37.02
2019-05-16T09:35:36.997Z,37.90
2019-05-16T09:36:37.103Z,36.81
2019-05-16T09:37:37.600Z,36.24
2019-05-16T09:38:38.297Z,37.99
2019-05-16T09:39:37.145Z,38.07
2019-05-16T09:40:38.704Z,37.80
2019-05-16T09:41:49.757Z,37.40
2019-05-16T09:42:37.242Z,36.30
2019-05-16T09:43:38.532Z,35.13
2019-05-16T09:44:36.979Z,34.19
2019-05-16T09:45:37.870Z,33.82
2019-05-16T09:46:37.477Z,33.73
2019-05-16T09:47:38.602Z,33.88
2019-05-16T09:48:38.014Z,33.72
2019-05-16T09:49:37.106Z,32.93
2019-05-16T09:50:37.753Z,32.78
2019-05-16T09:51:37.603Z,33.09
2019-05-16T09:52:36.417Z,34.85
2019-05-16T09:53:36.628Z,37.20
2019-05-16T09:54:37.704Z,38.02
2019-05-16T09:55:37.197Z,38.84
2019-05-16T09:56:36.955Z,39.02
2019-05-16T09:57:37.671Z,39.52
2019-05-16T09:58:37.241Z,38.59
2019-05-16T09:59:37.077Z,37.51
2019-05-16T10:00:37.379Z,36.55
2019-05-16T10:01:37.049Z,35.99
2019-05-16T10:02:36.787Z,35.69
2019-05-16T10:03:37.285Z,35.58
2019-05-16T10:04:36.842Z,35.23
2019-05-16T10:05:37.174Z,35.06
2019-05-16T10:06:37.206Z,35.34
2019-05-16T10:07:38.523Z,35.66
2019-05-16T10:08:37.307Z,35.77
2019-05-16T10:09:42.047Z,35.88
2019-05-16T10:10:36.977Z,36.23
2019-05-16T10:11:40.897Z,36.63
2019-05-16T10:12:37.136Z,36.73
2019-05-16T10:13:37.314Z,36.42
2019-05-16T10:14:37.651Z,36.21
2019-05-16T10:15:37.614Z,36.29
2019-05-16T10:16:36.702Z,36.25
2019-05-16T10:17:37.069Z,36.31
2019-05-16T10:18:36.970Z,36.33
2019-05-16T10:19:36.762Z,36.08
2019-05-16T10:20:36.719Z,35.75
2019-05-16T10:21:37.224Z,35.40
2019-05-16T10:22:37.213Z,35.13
2019-05-16T10:23:36.452Z,35.15
2019-05-16T10:24:37.423Z,35.31
2019-05-16T10:25:37.541Z,35.44
2019-05-16T10:26:37.066Z,35.35
2019-05-16T10:27:36.763Z,35.17
2019-05-16T10:28:38.156Z,35.03
2019-05-16T10:29:37.556Z,35.08
2019-05-16T10:30:37.488Z,35.15
2019-05-16T10:31:44.794Z,35.03
2019-05-16T10:32:36.509Z,34.88
2019-05-16T10:33:38.649Z,34.79
2019-05-16T10:34:36.962Z,34.58
2019-05-16T10:35:37.222Z,34.36
2019-05-16T10:36:37.159Z,34.16
2019-05-16T10:37:37.399Z,33.85
2019-05-16T10:38:37.375Z,33.38
2019-05-16T10:39:37.280Z,32.89
2019-05-16T10:40:36.924Z,32.41
2019-05-16T10:41:36.942Z,31.97
2019-05-16T10:42:37.675Z,31.64
2019-05-16T10:43:36.929Z,31.55
2019-05-16T10:44:38.209Z,31.57
2019-05-16T10:45:36.737Z,31.61
2019-05-16T10:46:37.459Z,31.61
2019-05-16T10:47:36.926Z,31.31
2019-05-16T10:48:37.373Z,30.91
2019-05-16T10:49:38.756Z,30.47
2019-05-16T10:50:36.944Z,30.08
2019-05-16T10:51:34.770Z,29.76
2019-05-16T10:52:36.633Z,29.59
2019-05-16T10:54:00.497Z,29.48
2019-05-16T10:54:37.012Z,29.38
2019-05-16T10:55:36.763Z,29.38
2019-05-16T10:56:34.751Z,29.55
2019-05-16T10:57:35.248Z,29.86
2019-05-16T10:58:41.652Z,30.43
2019-05-16T11:00:00.439Z,31.12
2019-05-16T11:01:05.018Z,31.21
2019-05-16T11:01:36.725Z,31.70
2019-05-16T11:02:36.972Z,32.40
2019-05-16T11:03:34.585Z,32.83
2019-05-16T11:04:52.857Z,32.87
2019-05-16T11:05:38.846Z,32.79
2019-05-16T11:06:37.098Z,32.56
2019-05-16T11:07:37.102Z,32.26
2019-05-16T11:08:37.209Z,31.74
2019-05-16T11:09:39.145Z,31.28
2019-05-16T11:10:37.162Z,31.11
2019-05-16T11:11:36.633Z,31.17
2019-05-16T11:12:47.457Z,31.29
2019-05-16T11:13:37.034Z,31.00
2019-05-16T11:14:36.892Z,30.62
2019-05-16T11:15:34.476Z,30.57
2019-05-16T11:16:36.685Z,30.76
2019-05-16T11:17:34.477Z,30.88
2019-05-16T11:18:34.437Z,30.82
2019-05-16T11:19:37.096Z,30.73
2019-05-16T11:20:37.158Z,30.46
2019-05-16T11:21:34.407Z,30.06
2019-05-16T11:22:36.998Z,29.79
2019-05-16T11:23:36.572Z,29.80
2019-05-16T11:24:34.414Z,29.95
2019-05-16T11:25:36.493Z,29.90
2019-05-16T11:26:36.637Z,29.64
2019-05-16T11:27:34.343Z,29.38
2019-05-16T11:28:36.788Z,29.22
2019-05-16T11:29:36.485Z,29.20
2019-05-16T11:30:37.320Z,29.14
2019-05-16T11:31:34.307Z,29.11
2019-05-16T11:32:34.290Z,29.07
2019-05-16T11:33:36.845Z,29.12
2019-05-16T11:34:34.303Z,29.33
2019-05-16T11:35:34.242Z,29.57
2019-05-16T11:36:34.245Z,29.71
2019-05-16T11:37:34.222Z,29.91
2019-05-16T11:38:34.221Z,30.46
2019-05-16T11:39:34.201Z,31.53
2019-05-16T11:40:34.219Z,32.95
2019-05-16T11:41:34.175Z,33.63
2019-05-16T11:42:34.190Z,33.86
2019-05-16T11:43:36.549Z,34.20
2019-05-16T11:44:34.160Z,34.89
2019-05-16T11:45:36.595Z,35.35
2019-05-16T11:46:37.237Z,35.44
2019-05-16T11:47:36.313Z,35.05
2019-05-16T11:48:34.116Z,34.99
2019-05-16T11:49:34.116Z,35.30
2019-05-16T11:50:37.026Z,37.39
2019-05-16T11:51:34.072Z,36.91
2019-05-16T11:52:34.060Z,35.67
2019-05-16T11:53:34.045Z,34.69
2019-05-16T11:54:34.047Z,34.05
2019-05-16T11:55:37.015Z,33.79
2019-05-16T11:56:36.905Z,33.75
2019-05-16T11:57:34.013Z,33.77
2019-05-16T11:58:34.012Z,33.94
2019-05-16T11:59:33.978Z,34.26
2019-05-16T12:00:33.988Z,34.54
2019-05-16T12:01:36.819Z,34.62
2019-05-16T12:02:37.675Z,34.43
2019-05-16T12:03:37.338Z,34.10
2019-05-16T12:04:33.961Z,33.92
2019-05-16T12:05:33.922Z,33.82
2019-05-16T12:06:33.951Z,33.77
2019-05-16T12:07:35.085Z,33.44
2019-05-16T12:08:33.889Z,32.85
2019-05-16T12:09:37.233Z,32.09
2019-05-16T12:10:36.288Z,31.34
2019-05-16T12:11:33.896Z,30.59
2019-05-16T12:12:33.861Z,29.86
2019-05-16T12:13:33.826Z,29.16
2019-05-16T12:14:33.853Z,28.46
2019-05-16T12:15:33.807Z,27.72
2019-05-16T12:16:33.836Z,27.00
2019-05-16T12:17:33.806Z,26.33
2019-05-16T12:18:33.780Z,25.71
2019-05-16T12:19:37.757Z,25.17
2019-05-16T12:20:34.770Z,24.71
2019-05-16T12:21:33.748Z,24.29
2019-05-16T12:22:33.761Z,23.95
2019-05-16T12:23:33.761Z,23.62
2019-05-16T12:24:38.801Z,23.27
2019-05-16T12:25:36.723Z,22.95
2019-05-16T12:26:33.755Z,22.70
2019-05-16T12:27:34.153Z,22.49
2019-05-16T12:28:33.691Z,22.33
2019-05-16T12:29:33.702Z,22.23
2019-05-16T12:30:33.661Z,22.11
2019-05-16T12:31:33.662Z,22.04
2019-05-16T12:32:33.633Z,22.01
2019-05-16T12:33:33.609Z,22.09
2019-05-16T12:34:33.647Z,22.19
2019-05-16T12:35:33.622Z,22.35
2019-05-16T12:36:33.576Z,22.61
2019-05-16T12:37:33.593Z,22.88
2019-05-16T12:38:33.563Z,23.07
2019-05-16T12:39:33.587Z,23.14
2019-05-16T12:40:33.533Z,23.15
2019-05-16T12:41:33.532Z,23.19
2019-05-16T12:42:33.512Z,23.23
2019-05-16T12:43:48.206Z,23.24
2019-05-16T12:44:34.520Z,23.15
2019-05-16T12:45:33.485Z,22.98
2019-05-16T12:46:33.474Z,22.77
2019-05-16T12:47:33.484Z,22.52
2019-05-16T12:48:33.439Z,22.21
2019-05-16T12:49:33.446Z,21.85
2019-05-16T12:50:33.464Z,21.59
2019-05-16T12:51:33.425Z,21.48
2019-05-16T12:52:34.266Z,21.52
2019-05-16T12:53:33.412Z,21.68
2019-05-16T12:54:33.378Z,21.94
2019-05-16T12:55:33.395Z,22.23
2019-05-16T12:56:33.385Z,22.53
2019-05-16T12:57:33.352Z,22.82
2019-05-16T12:58:42.160Z,22.92
2019-05-16T12:59:36.674Z,22.89
2019-05-16T13:00:33.336Z,22.76
2019-05-16T13:01:34.480Z,22.58